sensor_id;sensor_type;location;lat;lon;timestamp;P1;durP1;ratioP1;P2;durP2;ratioP2
10154;SDS011;5118;48.570;7.916;2023-12-28T00:01:06;5.20;;;4.60;;
10154;SDS011;5118;48.570;7.916;2023-12-28T00:03:35;6.50;;;4.73;;
10154;SDS011;5118;48.570;7.916;2023-12-28T00:06:05;5.30;;;4.30;;
10154;SDS011;5118;48.570;7.916;2023-12-28T00:08:33;4.60;;;4.10;;
10154;SDS011;5118;48.570;7.916;2023-12-28T00:11:02;5.57;;;4.20;;
10154;SDS011;5118;48.570;7.916;2023-12-28T00:13:31;4.03;;;3.63;;
10154;SDS011;5118;48.570;7.916;2023-12-28T00:16:02;4.50;;;4.07;;
10154;SDS011;5118;48.570;7.916;2023-12-28T00:18:30;5.53;;;3.70;;
10154;SDS011;5118;48.570;7.916;2023-12-28T00:20:58;4.93;;;4.00;;
10154;SDS011;5118;48.570;7.916;2023-12-28T00:23:27;5.47;;;4.10;;
10154;SDS011;5118;48.570;7.916;2023-12-28T00:25:56;9.10;;;4.93;;
10154;SDS011;5118;48.570;7.916;2023-12-28T00:28:24;6.10;;;4.70;;
10154;SDS011;5118;48.570;7.916;2023-12-28T00:30:52;4.60;;;4.20;;
10154;SDS011;5118;48.570;7.916;2023-12-28T00:33:24;5.07;;;4.03;;
10154;SDS011;5118;48.570;7.916;2023-12-28T00:35:53;4.50;;;4.10;;
10154;SDS011;5118;48.570;7.916;2023-12-28T00:38:22;5.20;;;3.60;;
10154;SDS011;5118;48.570;7.916;2023-12-28T00:40:50;5.13;;;4.00;;
10154;SDS011;5118;48.570;7.916;2023-12-28T00:43:21;4.23;;;3.70;;
10154;SDS011;5118;48.570;7.916;2023-12-28T00:45:50;4.40;;;3.97;;
10154;SDS011;5118;48.570;7.916;2023-12-28T00:48:18;6.07;;;4.20;;
10154;SDS011;5118;48.570;7.916;2023-12-28T00:50:56;4.87;;;3.67;;
10154;SDS011;5118;48.570;7.916;2023-12-28T00:53:28;4.50;;;3.70;;
10154;SDS011;5118;48.570;7.916;2023-12-28T00:55:58;5.43;;;3.97;;
10154;SDS011;5118;48.570;7.916;2023-12-28T00:58:32;5.13;;;3.77;;
10154;SDS011;5118;48.570;7.916;2023-12-28T01:01:00;4.63;;;3.70;;
10154;SDS011;5118;48.570;7.916;2023-12-28T01:03:29;4.67;;;3.80;;
10154;SDS011;5118;48.570;7.916;2023-12-28T01:05:59;4.73;;;3.97;;
10154;SDS011;5118;48.570;7.916;2023-12-28T01:08:27;5.67;;;4.30;;
10154;SDS011;5118;48.570;7.916;2023-12-28T01:10:56;6.33;;;3.60;;
10154;SDS011;5118;48.570;7.916;2023-12-28T01:13:24;4.00;;;3.43;;
10154;SDS011;5118;48.570;7.916;2023-12-28T01:15:53;4.80;;;3.53;;
10154;SDS011;5118;48.570;7.916;2023-12-28T01:18:21;4.07;;;3.33;;
10154;SDS011;5118;48.570;7.916;2023-12-28T01:20:52;4.07;;;3.40;;
10154;SDS011;5118;48.570;7.916;2023-12-28T01:23:22;3.83;;;3.43;;
10154;SDS011;5118;48.570;7.916;2023-12-28T01:25:52;4.03;;;3.10;;
10154;SDS011;5118;48.570;7.916;2023-12-28T01:28:22;3.87;;;3.10;;
10154;SDS011;5118;48.570;7.916;2023-12-28T01:30:51;4.00;;;3.23;;
10154;SDS011;5118;48.570;7.916;2023-12-28T01:33:19;4.83;;;3.20;;
10154;SDS011;5118;48.570;7.916;2023-12-28T01:35:48;3.67;;;3.13;;
10154;SDS011;5118;48.570;7.916;2023-12-28T01:38:17;4.57;;;3.50;;
10154;SDS011;5118;48.570;7.916;2023-12-28T01:40:47;4.30;;;3.10;;
10154;SDS011;5118;48.570;7.916;2023-12-28T01:43:16;3.20;;;2.90;;
10154;SDS011;5118;48.570;7.916;2023-12-28T01:45:44;4.20;;;2.90;;
10154;SDS011;5118;48.570;7.916;2023-12-28T01:48:14;3.27;;;2.97;;
10154;SDS011;5118;48.570;7.916;2023-12-28T01:50:44;3.20;;;2.77;;
10154;SDS011;5118;48.570;7.916;2023-12-28T01:53:12;3.43;;;2.90;;
10154;SDS011;5118;48.570;7.916;2023-12-28T01:55:42;3.33;;;3.03;;
10154;SDS011;5118;48.570;7.916;2023-12-28T01:58:12;3.60;;;3.30;;
10154;SDS011;5118;48.570;7.916;2023-12-28T02:00:41;4.90;;;3.80;;
10154;SDS011;5118;48.570;7.916;2023-12-28T02:03:11;4.03;;;3.47;;
10154;SDS011;5118;48.570;7.916;2023-12-28T02:05:40;4.03;;;3.07;;
10154;SDS011;5118;48.570;7.916;2023-12-28T02:08:10;3.40;;;3.00;;
10154;SDS011;5118;48.570;7.916;2023-12-28T02:10:39;3.20;;;2.83;;
10154;SDS011;5118;48.570;7.916;2023-12-28T02:13:08;4.57;;;2.90;;
10154;SDS011;5118;48.570;7.916;2023-12-28T02:15:38;3.90;;;3.00;;
10154;SDS011;5118;48.570;7.916;2023-12-28T02:18:08;3.87;;;3.13;;
10154;SDS011;5118;48.570;7.916;2023-12-28T02:20:39;3.30;;;3.00;;
10154;SDS011;5118;48.570;7.916;2023-12-28T02:23:09;3.27;;;2.67;;
10154;SDS011;5118;48.570;7.916;2023-12-28T02:25:39;3.70;;;2.83;;
10154;SDS011;5118;48.570;7.916;2023-12-28T02:28:07;3.83;;;3.10;;
10154;SDS011;5118;48.570;7.916;2023-12-28T02:30:36;3.37;;;2.83;;
10154;SDS011;5118;48.570;7.916;2023-12-28T02:33:07;4.17;;;3.07;;
10154;SDS011;5118;48.570;7.916;2023-12-28T02:35:41;3.87;;;2.70;;
10154;SDS011;5118;48.570;7.916;2023-12-28T02:38:14;4.17;;;3.10;;
10154;SDS011;5118;48.570;7.916;2023-12-28T02:40:45;3.10;;;2.57;;
10154;SDS011;5118;48.570;7.916;2023-12-28T02:43:15;2.73;;;2.50;;
10154;SDS011;5118;48.570;7.916;2023-12-28T02:45:43;3.03;;;2.73;;
10154;SDS011;5118;48.570;7.916;2023-12-28T02:48:12;3.20;;;2.80;;
10154;SDS011;5118;48.570;7.916;2023-12-28T02:50:40;3.10;;;2.80;;
10154;SDS011;5118;48.570;7.916;2023-12-28T02:53:09;3.47;;;2.60;;
10154;SDS011;5118;48.570;7.916;2023-12-28T02:55:37;3.60;;;2.40;;
10154;SDS011;5118;48.570;7.916;2023-12-28T02:58:07;2.50;;;2.30;;
10154;SDS011;5118;48.570;7.916;2023-12-28T03:00:36;3.30;;;2.93;;
10154;SDS011;5118;48.570;7.916;2023-12-28T03:03:04;3.23;;;2.93;;
10154;SDS011;5118;48.570;7.916;2023-12-28T03:05:33;3.27;;;2.90;;
10154;SDS011;5118;48.570;7.916;2023-12-28T03:08:01;3.63;;;2.67;;
10154;SDS011;5118;48.570;7.916;2023-12-28T03:10:30;3.53;;;2.70;;
10154;SDS011;5118;48.570;7.916;2023-12-28T03:12:59;3.17;;;2.30;;
10154;SDS011;5118;48.570;7.916;2023-12-28T03:15:29;3.33;;;2.80;;
10154;SDS011;5118;48.570;7.916;2023-12-28T03:17:57;3.23;;;2.60;;
10154;SDS011;5118;48.570;7.916;2023-12-28T03:20:26;2.97;;;2.50;;
10154;SDS011;5118;48.570;7.916;2023-12-28T03:22:55;3.20;;;2.70;;
10154;SDS011;5118;48.570;7.916;2023-12-28T03:25:23;3.30;;;2.80;;
10154;SDS011;5118;48.570;7.916;2023-12-28T03:27:52;2.90;;;2.60;;
10154;SDS011;5118;48.570;7.916;2023-12-28T03:30:21;2.60;;;2.40;;
10154;SDS011;5118;48.570;7.916;2023-12-28T03:32:51;2.83;;;2.53;;
10154;SDS011;5118;48.570;7.916;2023-12-28T03:35:20;3.50;;;2.50;;
10154;SDS011;5118;48.570;7.916;2023-12-28T03:37:48;2.77;;;2.57;;
10154;SDS011;5118;48.570;7.916;2023-12-28T03:40:17;3.77;;;2.80;;
10154;SDS011;5118;48.570;7.916;2023-12-28T03:42:46;2.80;;;2.50;;
10154;SDS011;5118;48.570;7.916;2023-12-28T03:45:14;3.10;;;2.80;;
10154;SDS011;5118;48.570;7.916;2023-12-28T03:47:43;2.50;;;2.30;;
10154;SDS011;5118;48.570;7.916;2023-12-28T03:50:13;2.70;;;2.50;;
10154;SDS011;5118;48.570;7.916;2023-12-28T03:52:41;3.43;;;2.50;;
10154;SDS011;5118;48.570;7.916;2023-12-28T03:55:10;3.90;;;2.40;;
10154;SDS011;5118;48.570;7.916;2023-12-28T03:57:39;4.03;;;2.60;;
10154;SDS011;5118;48.570;7.916;2023-12-28T04:00:09;3.10;;;2.40;;
10154;SDS011;5118;48.570;7.916;2023-12-28T04:02:39;2.97;;;2.37;;
10154;SDS011;5118;48.570;7.916;2023-12-28T04:05:07;2.90;;;2.50;;
10154;SDS011;5118;48.570;7.916;2023-12-28T04:07:37;2.57;;;2.37;;
10154;SDS011;5118;48.570;7.916;2023-12-28T04:10:06;2.50;;;2.13;;
10154;SDS011;5118;48.570;7.916;2023-12-28T04:12:37;2.57;;;2.20;;
10154;SDS011;5118;48.570;7.916;2023-12-28T04:15:06;2.53;;;2.30;;
10154;SDS011;5118;48.570;7.916;2023-12-28T04:17:35;2.97;;;2.30;;
10154;SDS011;5118;48.570;7.916;2023-12-28T04:20:06;2.40;;;2.20;;
10154;SDS011;5118;48.570;7.916;2023-12-28T04:22:35;2.50;;;2.30;;
10154;SDS011;5118;48.570;7.916;2023-12-28T04:25:05;2.63;;;2.43;;
10154;SDS011;5118;48.570;7.916;2023-12-28T04:27:34;3.13;;;2.67;;
10154;SDS011;5118;48.570;7.916;2023-12-28T04:30:03;3.03;;;2.77;;
10154;SDS011;5118;48.570;7.916;2023-12-28T04:32:37;3.43;;;2.60;;
10154;SDS011;5118;48.570;7.916;2023-12-28T04:35:27;3.10;;;2.40;;
10154;SDS011;5118;48.570;7.916;2023-12-28T04:38:01;2.60;;;2.40;;
10154;SDS011;5118;48.570;7.916;2023-12-28T04:40:36;2.47;;;2.27;;
10154;SDS011;5118;48.570;7.916;2023-12-28T04:43:04;2.63;;;2.43;;
10154;SDS011;5118;48.570;7.916;2023-12-28T04:45:34;3.93;;;2.80;;
10154;SDS011;5118;48.570;7.916;2023-12-28T04:48:04;3.00;;;2.70;;
10154;SDS011;5118;48.570;7.916;2023-12-28T04:50:33;2.63;;;2.43;;
10154;SDS011;5118;48.570;7.916;2023-12-28T04:53:05;3.50;;;2.63;;
10154;SDS011;5118;48.570;7.916;2023-12-28T04:55:33;3.33;;;2.83;;
10154;SDS011;5118;48.570;7.916;2023-12-28T04:58:04;3.27;;;2.97;;
10154;SDS011;5118;48.570;7.916;2023-12-28T05:00:32;4.73;;;2.87;;
10154;SDS011;5118;48.570;7.916;2023-12-28T05:03:04;3.80;;;2.70;;
10154;SDS011;5118;48.570;7.916;2023-12-28T05:05:34;4.00;;;2.63;;
10154;SDS011;5118;48.570;7.916;2023-12-28T05:08:03;2.60;;;2.37;;
10154;SDS011;5118;48.570;7.916;2023-12-28T05:10:32;6.87;;;2.73;;
10154;SDS011;5118;48.570;7.916;2023-12-28T05:13:02;2.93;;;2.60;;
10154;SDS011;5118;48.570;7.916;2023-12-28T05:15:31;3.33;;;2.60;;
10154;SDS011;5118;48.570;7.916;2023-12-28T05:18:00;3.50;;;2.60;;
10154;SDS011;5118;48.570;7.916;2023-12-28T05:20:29;3.03;;;2.70;;
10154;SDS011;5118;48.570;7.916;2023-12-28T05:22:57;2.77;;;2.50;;
10154;SDS011;5118;48.570;7.916;2023-12-28T05:25:26;3.43;;;3.00;;
10154;SDS011;5118;48.570;7.916;2023-12-28T05:27:55;3.13;;;2.70;;
10154;SDS011;5118;48.570;7.916;2023-12-28T05:30:25;3.23;;;2.60;;
10154;SDS011;5118;48.570;7.916;2023-12-28T05:32:53;2.80;;;2.60;;
10154;SDS011;5118;48.570;7.916;2023-12-28T05:35:22;3.70;;;2.60;;
10154;SDS011;5118;48.570;7.916;2023-12-28T05:37:50;3.00;;;2.57;;
10154;SDS011;5118;48.570;7.916;2023-12-28T05:40:19;3.83;;;2.50;;
10154;SDS011;5118;48.570;7.916;2023-12-28T05:42:47;2.63;;;2.40;;
10154;SDS011;5118;48.570;7.916;2023-12-28T05:45:15;2.60;;;2.40;;
10154;SDS011;5118;48.570;7.916;2023-12-28T05:47:45;3.27;;;2.40;;
10154;SDS011;5118;48.570;7.916;2023-12-28T05:50:14;4.10;;;3.40;;
10154;SDS011;5118;48.570;7.916;2023-12-28T05:52:42;3.10;;;2.80;;
10154;SDS011;5118;48.570;7.916;2023-12-28T05:55:11;4.37;;;3.47;;
10154;SDS011;5118;48.570;7.916;2023-12-28T05:57:39;3.47;;;2.90;;
10154;SDS011;5118;48.570;7.916;2023-12-28T06:00:08;2.70;;;2.50;;
10154;SDS011;5118;48.570;7.916;2023-12-28T06:02:40;2.73;;;2.53;;
10154;SDS011;5118;48.570;7.916;2023-12-28T06:05:10;5.27;;;4.87;;
10154;SDS011;5118;48.570;7.916;2023-12-28T06:07:39;4.17;;;2.90;;
10154;SDS011;5118;48.570;7.916;2023-12-28T06:10:08;3.10;;;2.63;;
10154;SDS011;5118;48.570;7.916;2023-12-28T06:12:37;2.93;;;2.60;;
10154;SDS011;5118;48.570;7.916;2023-12-28T06:15:06;3.30;;;3.07;;
10154;SDS011;5118;48.570;7.916;2023-12-28T06:17:35;4.37;;;2.80;;
10154;SDS011;5118;48.570;7.916;2023-12-28T06:20:04;3.27;;;2.97;;
10154;SDS011;5118;48.570;7.916;2023-12-28T06:22:37;3.73;;;2.70;;
10154;SDS011;5118;48.570;7.916;2023-12-28T06:25:06;3.20;;;2.43;;
10154;SDS011;5118;48.570;7.916;2023-12-28T06:27:35;5.30;;;4.40;;
10154;SDS011;5118;48.570;7.916;2023-12-28T06:30:04;5.90;;;5.27;;
10154;SDS011;5118;48.570;7.916;2023-12-28T06:32:34;4.73;;;3.90;;
10154;SDS011;5118;48.570;7.916;2023-12-28T06:35:03;3.90;;;3.50;;
10154;SDS011;5118;48.570;7.916;2023-12-28T06:37:32;3.27;;;2.97;;
10154;SDS011;5118;48.570;7.916;2023-12-28T06:40:02;2.80;;;2.50;;
10154;SDS011;5118;48.570;7.916;2023-12-28T06:42:31;2.93;;;2.50;;
10154;SDS011;5118;48.570;7.916;2023-12-28T06:45:00;3.60;;;2.90;;
10154;SDS011;5118;48.570;7.916;2023-12-28T06:47:28;4.33;;;2.70;;
10154;SDS011;5118;48.570;7.916;2023-12-28T06:49:57;3.10;;;2.67;;
10154;SDS011;5118;48.570;7.916;2023-12-28T06:52:25;9.17;;;7.07;;
10154;SDS011;5118;48.570;7.916;2023-12-28T06:54:55;7.20;;;6.50;;
10154;SDS011;5118;48.570;7.916;2023-12-28T06:57:25;6.30;;;5.73;;
10154;SDS011;5118;48.570;7.916;2023-12-28T06:59:54;4.03;;;3.53;;
10154;SDS011;5118;48.570;7.916;2023-12-28T07:02:24;3.50;;;2.77;;
10154;SDS011;5118;48.570;7.916;2023-12-28T07:04:53;3.00;;;2.70;;
10154;SDS011;5118;48.570;7.916;2023-12-28T07:07:22;3.30;;;2.50;;
10154;SDS011;5118;48.570;7.916;2023-12-28T07:09:50;3.63;;;2.80;;
10154;SDS011;5118;48.570;7.916;2023-12-28T07:12:20;2.83;;;2.50;;
10154;SDS011;5118;48.570;7.916;2023-12-28T07:14:51;3.33;;;3.03;;
10154;SDS011;5118;48.570;7.916;2023-12-28T07:17:20;3.73;;;3.03;;
10154;SDS011;5118;48.570;7.916;2023-12-28T07:19:48;4.17;;;3.00;;
10154;SDS011;5118;48.570;7.916;2023-12-28T07:22:17;4.27;;;3.07;;
10154;SDS011;5118;48.570;7.916;2023-12-28T07:24:45;2.80;;;2.50;;
10154;SDS011;5118;48.570;7.916;2023-12-28T07:27:14;4.43;;;3.27;;
10154;SDS011;5118;48.570;7.916;2023-12-28T07:29:42;3.77;;;2.80;;
10154;SDS011;5118;48.570;7.916;2023-12-28T07:32:12;3.83;;;2.70;;
10154;SDS011;5118;48.570;7.916;2023-12-28T07:34:42;2.73;;;2.53;;
10154;SDS011;5118;48.570;7.916;2023-12-28T07:37:11;2.73;;;2.43;;
10154;SDS011;5118;48.570;7.916;2023-12-28T07:39:39;3.53;;;2.80;;
10154;SDS011;5118;48.570;7.916;2023-12-28T07:42:07;4.03;;;2.90;;
10154;SDS011;5118;48.570;7.916;2023-12-28T07:44:36;3.20;;;2.87;;
10154;SDS011;5118;48.570;7.916;2023-12-28T07:47:04;3.83;;;2.93;;
10154;SDS011;5118;48.570;7.916;2023-12-28T07:49:37;4.23;;;2.80;;
10154;SDS011;5118;48.570;7.916;2023-12-28T07:52:05;3.23;;;2.60;;
10154;SDS011;5118;48.570;7.916;2023-12-28T07:54:34;3.60;;;2.93;;
10154;SDS011;5118;48.570;7.916;2023-12-28T07:57:03;4.00;;;3.30;;
10154;SDS011;5118;48.570;7.916;2023-12-28T07:59:31;3.83;;;2.90;;
10154;SDS011;5118;48.570;7.916;2023-12-28T08:02:00;3.00;;;2.70;;
10154;SDS011;5118;48.570;7.916;2023-12-28T08:04:28;2.90;;;2.70;;
10154;SDS011;5118;48.570;7.916;2023-12-28T08:06:59;2.80;;;2.60;;
10154;SDS011;5118;48.570;7.916;2023-12-28T08:09:28;4.73;;;3.50;;
10154;SDS011;5118;48.570;7.916;2023-12-28T08:11:56;3.13;;;2.70;;
10154;SDS011;5118;48.570;7.916;2023-12-28T08:14:25;5.20;;;3.90;;
10154;SDS011;5118;48.570;7.916;2023-12-28T08:16:53;5.03;;;3.33;;
10154;SDS011;5118;48.570;7.916;2023-12-28T08:19:22;4.43;;;2.70;;
10154;SDS011;5118;48.570;7.916;2023-12-28T08:21:51;4.80;;;3.10;;
10154;SDS011;5118;48.570;7.916;2023-12-28T08:24:20;3.30;;;3.00;;
10154;SDS011;5118;48.570;7.916;2023-12-28T08:26:49;3.97;;;3.40;;
10154;SDS011;5118;48.570;7.916;2023-12-28T08:29:18;3.60;;;3.20;;
10154;SDS011;5118;48.570;7.916;2023-12-28T08:31:46;4.20;;;2.80;;
10154;SDS011;5118;48.570;7.916;2023-12-28T08:34:15;3.60;;;3.30;;
10154;SDS011;5118;48.570;7.916;2023-12-28T08:36:44;3.80;;;3.40;;
10154;SDS011;5118;48.570;7.916;2023-12-28T08:39:12;3.77;;;3.47;;
10154;SDS011;5118;48.570;7.916;2023-12-28T08:41:42;4.00;;;3.60;;
10154;SDS011;5118;48.570;7.916;2023-12-28T08:44:10;4.03;;;3.20;;
10154;SDS011;5118;48.570;7.916;2023-12-28T08:46:39;4.77;;;3.30;;
10154;SDS011;5118;48.570;7.916;2023-12-28T08:49:07;5.50;;;3.00;;
10154;SDS011;5118;48.570;7.916;2023-12-28T08:51:35;5.60;;;4.67;;
10154;SDS011;5118;48.570;7.916;2023-12-28T08:54:08;5.23;;;4.73;;
10154;SDS011;5118;48.570;7.916;2023-12-28T08:56:38;4.60;;;4.07;;
10154;SDS011;5118;48.570;7.916;2023-12-28T08:59:08;7.07;;;4.00;;
10154;SDS011;5118;48.570;7.916;2023-12-28T09:01:36;4.97;;;4.20;;
10154;SDS011;5118;48.570;7.916;2023-12-28T09:04:04;5.60;;;4.63;;
10154;SDS011;5118;48.570;7.916;2023-12-28T09:06:33;5.53;;;4.30;;
10154;SDS011;5118;48.570;7.916;2023-12-28T09:09:02;5.93;;;4.00;;
10154;SDS011;5118;48.570;7.916;2023-12-28T09:11:32;3.50;;;3.10;;
10154;SDS011;5118;48.570;7.916;2023-12-28T09:14:00;4.37;;;3.20;;
10154;SDS011;5118;48.570;7.916;2023-12-28T09:16:30;3.93;;;3.20;;
10154;SDS011;5118;48.570;7.916;2023-12-28T09:18:59;4.60;;;2.90;;
10154;SDS011;5118;48.570;7.916;2023-12-28T09:21:27;3.87;;;3.10;;
10154;SDS011;5118;48.570;7.916;2023-12-28T09:23:56;3.67;;;3.03;;
10154;SDS011;5118;48.570;7.916;2023-12-28T09:26:24;3.50;;;3.20;;
10154;SDS011;5118;48.570;7.916;2023-12-28T09:28:53;3.30;;;3.00;;
10154;SDS011;5118;48.570;7.916;2023-12-28T09:31:22;3.30;;;2.90;;
10154;SDS011;5118;48.570;7.916;2023-12-28T09:33:52;3.53;;;2.90;;
10154;SDS011;5118;48.570;7.916;2023-12-28T09:36:20;4.37;;;2.70;;
10154;SDS011;5118;48.570;7.916;2023-12-28T09:38:49;3.80;;;2.87;;
10154;SDS011;5118;48.570;7.916;2023-12-28T09:41:18;3.60;;;2.90;;
10154;SDS011;5118;48.570;7.916;2023-12-28T09:43:53;3.07;;;2.63;;
10154;SDS011;5118;48.570;7.916;2023-12-28T09:46:23;3.33;;;2.80;;
10154;SDS011;5118;48.570;7.916;2023-12-28T09:48:55;4.37;;;2.70;;
10154;SDS011;5118;48.570;7.916;2023-12-28T09:51:24;2.97;;;2.67;;
10154;SDS011;5118;48.570;7.916;2023-12-28T09:53:53;3.13;;;2.70;;
10154;SDS011;5118;48.570;7.916;2023-12-28T09:56:22;5.17;;;3.30;;
10154;SDS011;5118;48.570;7.916;2023-12-28T09:58:55;5.17;;;3.60;;
10154;SDS011;5118;48.570;7.916;2023-12-28T10:01:25;4.70;;;3.00;;
10154;SDS011;5118;48.570;7.916;2023-12-28T10:03:55;3.40;;;3.10;;
10154;SDS011;5118;48.570;7.916;2023-12-28T10:06:23;3.90;;;3.30;;
10154;SDS011;5118;48.570;7.916;2023-12-28T10:08:53;4.10;;;3.57;;
10154;SDS011;5118;48.570;7.916;2023-12-28T10:11:22;4.53;;;3.50;;
10154;SDS011;5118;48.570;7.916;2023-12-28T10:13:53;7.23;;;3.50;;
10154;SDS011;5118;48.570;7.916;2023-12-28T10:16:21;4.37;;;3.70;;
10154;SDS011;5118;48.570;7.916;2023-12-28T10:18:49;6.10;;;4.13;;
10154;SDS011;5118;48.570;7.916;2023-12-28T10:21:19;5.20;;;4.70;;
10154;SDS011;5118;48.570;7.916;2023-12-28T10:23:48;5.77;;;4.30;;
10154;SDS011;5118;48.570;7.916;2023-12-28T10:26:17;4.53;;;3.67;;
10154;SDS011;5118;48.570;7.916;2023-12-28T10:28:46;5.33;;;3.33;;
10154;SDS011;5118;48.570;7.916;2023-12-28T10:31:14;4.10;;;3.23;;
10154;SDS011;5118;48.570;7.916;2023-12-28T10:33:43;5.20;;;3.73;;
10154;SDS011;5118;48.570;7.916;2023-12-28T10:36:13;4.10;;;3.70;;
10154;SDS011;5118;48.570;7.916;2023-12-28T10:38:45;4.23;;;3.63;;
10154;SDS011;5118;48.570;7.916;2023-12-28T10:41:15;3.87;;;3.50;;
10154;SDS011;5118;48.570;7.916;2023-12-28T10:43:45;4.20;;;3.30;;
10154;SDS011;5118;48.570;7.916;2023-12-28T10:46:26;3.97;;;3.50;;
10154;SDS011;5118;48.570;7.916;2023-12-28T10:48:57;4.03;;;3.27;;
10154;SDS011;5118;48.570;7.916;2023-12-28T10:51:27;6.07;;;5.47;;
10154;SDS011;5118;48.570;7.916;2023-12-28T10:54:02;6.00;;;4.10;;
10154;SDS011;5118;48.570;7.916;2023-12-28T10:56:41;4.97;;;3.60;;
10154;SDS011;5118;48.570;7.916;2023-12-28T10:59:16;4.77;;;3.47;;
10154;SDS011;5118;48.570;7.916;2023-12-28T11:01:49;3.73;;;3.40;;
10154;SDS011;5118;48.570;7.916;2023-12-28T11:04:21;4.50;;;3.20;;
10154;SDS011;5118;48.570;7.916;2023-12-28T11:06:54;4.83;;;3.80;;
10154;SDS011;5118;48.570;7.916;2023-12-28T11:09:27;4.00;;;3.00;;
10154;SDS011;5118;48.570;7.916;2023-12-28T11:11:58;4.37;;;3.57;;
10154;SDS011;5118;48.570;7.916;2023-12-28T11:14:30;4.10;;;3.37;;
10154;SDS011;5118;48.570;7.916;2023-12-28T11:17:00;4.30;;;3.70;;
10154;SDS011;5118;48.570;7.916;2023-12-28T11:19:29;4.23;;;3.47;;
10154;SDS011;5118;48.570;7.916;2023-12-28T11:22:00;3.77;;;3.37;;
10154;SDS011;5118;48.570;7.916;2023-12-28T11:24:32;3.77;;;3.33;;
10154;SDS011;5118;48.570;7.916;2023-12-28T11:27:01;4.23;;;3.30;;
10154;SDS011;5118;48.570;7.916;2023-12-28T11:29:37;4.90;;;3.93;;
10154;SDS011;5118;48.570;7.916;2023-12-28T11:32:05;6.03;;;4.20;;
10154;SDS011;5118;48.570;7.916;2023-12-28T11:34:36;5.23;;;3.93;;
10154;SDS011;5118;48.570;7.916;2023-12-28T11:37:06;5.63;;;4.80;;
10154;SDS011;5118;48.570;7.916;2023-12-28T11:39:38;10.63;;;7.97;;
10154;SDS011;5118;48.570;7.916;2023-12-28T11:42:07;14.90;;;9.67;;
10154;SDS011;5118;48.570;7.916;2023-12-28T11:44:37;12.43;;;10.30;;
10154;SDS011;5118;48.570;7.916;2023-12-28T11:47:11;6.83;;;6.03;;
10154;SDS011;5118;48.570;7.916;2023-12-28T11:49:40;6.77;;;4.77;;
10154;SDS011;5118;48.570;7.916;2023-12-28T11:52:09;7.00;;;5.20;;
10154;SDS011;5118;48.570;7.916;2023-12-28T11:54:40;8.00;;;5.53;;
10154;SDS011;5118;48.570;7.916;2023-12-28T11:57:16;11.27;;;8.87;;
10154;SDS011;5118;48.570;7.916;2023-12-28T11:59:45;6.73;;;5.37;;
10154;SDS011;5118;48.570;7.916;2023-12-28T12:02:13;5.37;;;4.80;;
10154;SDS011;5118;48.570;7.916;2023-12-28T12:04:42;8.10;;;5.40;;
10154;SDS011;5118;48.570;7.916;2023-12-28T12:07:11;6.87;;;5.10;;
10154;SDS011;5118;48.570;7.916;2023-12-28T12:09:41;8.27;;;6.37;;
10154;SDS011;5118;48.570;7.916;2023-12-28T12:12:09;10.67;;;8.10;;
10154;SDS011;5118;48.570;7.916;2023-12-28T12:14:38;8.50;;;6.97;;
10154;SDS011;5118;48.570;7.916;2023-12-28T12:17:07;6.73;;;6.03;;
10154;SDS011;5118;48.570;7.916;2023-12-28T12:19:36;6.00;;;5.27;;
10154;SDS011;5118;48.570;7.916;2023-12-28T12:22:05;8.57;;;5.40;;
10154;SDS011;5118;48.570;7.916;2023-12-28T12:24:35;8.70;;;5.40;;
10154;SDS011;5118;48.570;7.916;2023-12-28T12:27:05;7.67;;;5.77;;
10154;SDS011;5118;48.570;7.916;2023-12-28T12:29:34;8.77;;;6.97;;
10154;SDS011;5118;48.570;7.916;2023-12-28T12:32:03;8.60;;;6.50;;
10154;SDS011;5118;48.570;7.916;2023-12-28T12:34:32;7.97;;;6.67;;
10154;SDS011;5118;48.570;7.916;2023-12-28T12:37:01;9.70;;;7.20;;
10154;SDS011;5118;48.570;7.916;2023-12-28T12:39:31;11.60;;;7.13;;
10154;SDS011;5118;48.570;7.916;2023-12-28T12:42:00;20.40;;;12.93;;
10154;SDS011;5118;48.570;7.916;2023-12-28T12:44:30;21.50;;;17.60;;
10154;SDS011;5118;48.570;7.916;2023-12-28T12:46:59;16.87;;;13.63;;
10154;SDS011;5118;48.570;7.916;2023-12-28T12:49:31;8.13;;;7.30;;
10154;SDS011;5118;48.570;7.916;2023-12-28T12:52:00;6.43;;;5.70;;
10154;SDS011;5118;48.570;7.916;2023-12-28T12:54:31;6.20;;;5.60;;
10154;SDS011;5118;48.570;7.916;2023-12-28T12:57:00;8.03;;;7.33;;
10154;SDS011;5118;48.570;7.916;2023-12-28T12:59:30;5.60;;;4.80;;
10154;SDS011;5118;48.570;7.916;2023-12-28T13:02:00;4.67;;;4.27;;
10154;SDS011;5118;48.570;7.916;2023-12-28T13:04:27;5.90;;;5.30;;
10154;SDS011;5118;48.570;7.916;2023-12-28T13:06:56;7.63;;;6.50;;
10154;SDS011;5118;48.570;7.916;2023-12-28T13:09:26;7.27;;;4.87;;
10154;SDS011;5118;48.570;7.916;2023-12-28T13:11:55;5.73;;;4.70;;
10154;SDS011;5118;48.570;7.916;2023-12-28T13:14:24;6.83;;;5.27;;
10154;SDS011;5118;48.570;7.916;2023-12-28T13:16:55;5.00;;;4.50;;
10154;SDS011;5118;48.570;7.916;2023-12-28T13:19:24;5.00;;;4.50;;
10154;SDS011;5118;48.570;7.916;2023-12-28T13:21:53;5.70;;;4.63;;
10154;SDS011;5118;48.570;7.916;2023-12-28T13:24:21;5.23;;;4.63;;
10154;SDS011;5118;48.570;7.916;2023-12-28T13:26:50;5.07;;;4.50;;
10154;SDS011;5118;48.570;7.916;2023-12-28T13:29:18;4.90;;;4.30;;
10154;SDS011;5118;48.570;7.916;2023-12-28T13:31:47;9.33;;;5.60;;
10154;SDS011;5118;48.570;7.916;2023-12-28T13:34:18;5.17;;;4.30;;
10154;SDS011;5118;48.570;7.916;2023-12-28T13:36:47;4.53;;;4.10;;
10154;SDS011;5118;48.570;7.916;2023-12-28T13:39:16;5.73;;;4.47;;
10154;SDS011;5118;48.570;7.916;2023-12-28T13:41:44;4.73;;;4.23;;
10154;SDS011;5118;48.570;7.916;2023-12-28T13:44:13;5.53;;;4.00;;
10154;SDS011;5118;48.570;7.916;2023-12-28T13:46:41;6.57;;;4.23;;
10154;SDS011;5118;48.570;7.916;2023-12-28T13:49:10;4.83;;;4.33;;
10154;SDS011;5118;48.570;7.916;2023-12-28T13:51:40;5.30;;;4.33;;
10154;SDS011;5118;48.570;7.916;2023-12-28T13:54:08;5.00;;;4.10;;
10154;SDS011;5118;48.570;7.916;2023-12-28T13:56:37;6.63;;;4.23;;
10154;SDS011;5118;48.570;7.916;2023-12-28T13:59:05;4.63;;;4.03;;
10154;SDS011;5118;48.570;7.916;2023-12-28T14:01:34;5.53;;;4.43;;
10154;SDS011;5118;48.570;7.916;2023-12-28T14:04:03;6.93;;;4.40;;
10154;SDS011;5118;48.570;7.916;2023-12-28T14:06:31;6.77;;;4.33;;
10154;SDS011;5118;48.570;7.916;2023-12-28T14:09:02;7.07;;;5.00;;
10154;SDS011;5118;48.570;7.916;2023-12-28T14:11:30;6.77;;;4.93;;
10154;SDS011;5118;48.570;7.916;2023-12-28T14:13:59;6.40;;;4.63;;
10154;SDS011;5118;48.570;7.916;2023-12-28T14:16:30;6.93;;;5.43;;
10154;SDS011;5118;48.570;7.916;2023-12-28T14:18:59;5.80;;;5.20;;
10154;SDS011;5118;48.570;7.916;2023-12-28T14:21:28;7.23;;;5.80;;
10154;SDS011;5118;48.570;7.916;2023-12-28T14:24:01;10.20;;;7.70;;
10154;SDS011;5118;48.570;7.916;2023-12-28T14:26:30;23.80;;;17.33;;
10154;SDS011;5118;48.570;7.916;2023-12-28T14:29:00;20.77;;;17.13;;
10154;SDS011;5118;48.570;7.916;2023-12-28T14:31:32;10.13;;;8.50;;
10154;SDS011;5118;48.570;7.916;2023-12-28T14:34:01;9.83;;;8.47;;
10154;SDS011;5118;48.570;7.916;2023-12-28T14:36:31;9.73;;;7.70;;
10154;SDS011;5118;48.570;7.916;2023-12-28T14:39:04;9.23;;;8.23;;
10154;SDS011;5118;48.570;7.916;2023-12-28T14:41:34;9.00;;;7.37;;
10154;SDS011;5118;48.570;7.916;2023-12-28T14:44:08;8.37;;;7.30;;
10154;SDS011;5118;48.570;7.916;2023-12-28T14:46:37;11.10;;;9.07;;
10154;SDS011;5118;48.570;7.916;2023-12-28T14:49:05;9.63;;;8.10;;
10154;SDS011;5118;48.570;7.916;2023-12-28T14:51:34;8.60;;;7.70;;
10154;SDS011;5118;48.570;7.916;2023-12-28T14:54:04;8.97;;;7.47;;
10154;SDS011;5118;48.570;7.916;2023-12-28T14:56:33;10.50;;;7.63;;
10154;SDS011;5118;48.570;7.916;2023-12-28T14:59:14;7.90;;;7.10;;
10154;SDS011;5118;48.570;7.916;2023-12-28T15:01:42;7.53;;;6.37;;
10154;SDS011;5118;48.570;7.916;2023-12-28T15:04:11;8.07;;;6.57;;
10154;SDS011;5118;48.570;7.916;2023-12-28T15:06:40;9.23;;;6.97;;
10154;SDS011;5118;48.570;7.916;2023-12-28T15:09:10;9.07;;;6.70;;
10154;SDS011;5118;48.570;7.916;2023-12-28T15:11:38;7.33;;;6.30;;
10154;SDS011;5118;48.570;7.916;2023-12-28T15:14:15;7.40;;;5.97;;